createdAt,value
2022-12-01T00:01:45.817Z,65.08
2022-12-01T00:04:12.474Z,65.29
2022-12-01T00:06:39.079Z,65.07
2022-12-01T00:09:24.477Z,65.02
2022-12-01T00:11:51.160Z,64.55
2022-12-01T00:14:17.922Z,64.98
2022-12-01T00:16:44.905Z,64.93
2022-12-01T00:19:11.627Z,64.90
2022-12-01T00:21:38.230Z,64.66
2022-12-01T00:24:05.565Z,65.55
2022-12-01T00:26:32.375Z,64.80
2022-12-01T00:29:00.123Z,64.76
2022-12-01T00:31:27.594Z,64.69
2022-12-01T00:33:54.602Z,65.03
2022-12-01T00:36:21.619Z,64.52
2022-12-01T00:38:52.836Z,63.99
2022-12-01T00:41:19.493Z,64.24
2022-12-01T00:43:46.141Z,64.18
2022-12-01T00:46:12.800Z,64.20
2022-12-01T00:48:40.125Z,64.41
2022-12-01T00:51:06.872Z,64.32
2022-12-01T00:53:33.662Z,64.26
2022-12-01T00:56:00.500Z,63.82
2022-12-01T00:58:27.565Z,63.34
2022-12-01T01:01:01.747Z,63.61
2022-12-01T01:03:30.271Z,63.39
2022-12-01T01:05:57.660Z,63.42
2022-12-01T01:08:26.371Z,63.21
2022-12-01T01:10:53.016Z,63.25
2022-12-01T01:13:19.884Z,63.57
2022-12-01T01:15:56.369Z,63.48
2022-12-01T01:18:22.929Z,63.68
2022-12-01T01:21:06.154Z,63.13
2022-12-01T01:23:33.430Z,63.26
2022-12-01T01:26:05.461Z,63.25
2022-12-01T01:28:32.915Z,63.14
2022-12-01T01:31:00.194Z,62.57
2022-12-01T01:33:26.927Z,63.33
2022-12-01T01:35:53.820Z,62.94
2022-12-01T01:38:20.420Z,63.17
2022-12-01T01:40:47.255Z,62.94
2022-12-01T01:43:37.734Z,63.51
2022-12-01T01:46:06.456Z,63.29
2022-12-01T01:48:35.228Z,62.79
2022-12-01T01:51:02.578Z,62.92
2022-12-01T01:53:29.383Z,63.11
2022-12-01T01:55:56.212Z,63.24
2022-12-01T01:58:23.616Z,63.15
2022-12-01T02:00:50.644Z,63.37
2022-12-01T02:03:20.317Z,63.29
2022-12-01T02:05:47.557Z,62.96
2022-12-01T02:08:14.180Z,62.89
2022-12-01T02:11:10.515Z,62.91
2022-12-01T02:14:12.000Z,62.77
2022-12-01T02:16:51.690Z,62.85
2022-12-01T02:19:42.941Z,62.63
2022-12-01T02:22:32.696Z,62.77
2022-12-01T02:25:11.238Z,62.53
2022-12-01T02:28:34.737Z,63.05
2022-12-01T02:31:14.889Z,63.64
2022-12-01T02:33:56.144Z,63.08
2022-12-01T02:36:37.349Z,62.85
2022-12-01T02:39:09.615Z,63.07
2022-12-01T02:42:04.981Z,62.62
2022-12-01T02:44:37.685Z,62.62
2022-12-01T02:47:11.802Z,62.54
2022-12-01T02:49:48.756Z,63.10
2022-12-01T02:52:16.835Z,62.78
2022-12-01T02:54:45.960Z,62.67
2022-12-01T02:57:14.951Z,62.75
2022-12-01T02:59:45.436Z,63.03
2022-12-01T03:02:43.467Z,62.60
2022-12-01T03:05:32.508Z,62.84
2022-12-01T03:08:08.416Z,63.22
2022-12-01T03:10:54.770Z,63.14
2022-12-01T03:13:33.800Z,63.07
2022-12-01T03:16:14.130Z,63.41
2022-12-01T03:18:54.226Z,63.05
2022-12-01T03:21:27.235Z,63.66
2022-12-01T03:24:01.007Z,63.25
2022-12-01T03:26:31.525Z,63.27
2022-12-01T03:29:03.859Z,62.69
2022-12-01T03:31:37.726Z,62.83
2022-12-01T03:34:11.589Z,62.25
2022-12-01T03:37:01.300Z,62.70
2022-12-01T03:39:35.533Z,62.60
2022-12-01T03:42:18.416Z,62.50
2022-12-01T03:44:54.112Z,62.51
2022-12-01T03:47:27.465Z,62.69
2022-12-01T03:49:54.839Z,62.83
2022-12-01T03:52:41.246Z,62.25
2022-12-01T03:55:29.884Z,62.24
2022-12-01T03:58:01.782Z,61.96
2022-12-01T04:00:31.496Z,62.00
2022-12-01T04:03:00.834Z,61.78
2022-12-01T04:05:27.928Z,62.54
2022-12-01T04:07:55.259Z,62.57
2022-12-01T04:10:22.699Z,62.94
2022-12-01T04:12:49.706Z,62.74
2022-12-01T04:15:17.146Z,63.22
2022-12-01T04:17:44.777Z,62.31
2022-12-01T04:20:14.138Z,62.37
2022-12-01T04:22:41.000Z,62.38
2022-12-01T04:25:08.665Z,62.37
2022-12-01T04:27:35.856Z,62.34
2022-12-01T04:30:03.886Z,62.02
2022-12-01T04:32:30.467Z,62.21
2022-12-01T04:34:57.110Z,62.02
2022-12-01T04:37:23.765Z,61.58
2022-12-01T04:39:50.553Z,62.17
2022-12-01T04:42:17.428Z,62.13
2022-12-01T04:44:44.010Z,61.96
2022-12-01T04:47:10.909Z,62.12
2022-12-01T04:49:37.891Z,62.19
2022-12-01T04:52:04.935Z,61.96
2022-12-01T04:54:31.474Z,62.42
2022-12-01T04:56:58.201Z,61.79
2022-12-01T04:59:24.899Z,61.99
2022-12-01T05:01:51.633Z,62.08
2022-12-01T05:04:18.340Z,62.35
2022-12-01T05:06:45.704Z,61.60
2022-12-01T05:09:17.192Z,62.21
2022-12-01T05:11:45.194Z,62.12
2022-12-01T05:14:12.473Z,61.64
2022-12-01T05:16:39.907Z,61.21
2022-12-01T05:19:25.486Z,61.61
2022-12-01T05:21:52.536Z,61.93
2022-12-01T05:24:20.961Z,61.60
2022-12-01T05:26:47.971Z,61.76
2022-12-01T05:29:14.997Z,62.05
2022-12-01T05:31:41.718Z,62.04
2022-12-01T05:34:08.902Z,62.11
2022-12-01T05:36:35.880Z,61.87
2022-12-01T05:39:02.793Z,62.17
2022-12-01T05:41:29.398Z,61.61
2022-12-01T05:43:56.035Z,61.91
2022-12-01T05:46:22.756Z,62.50
2022-12-01T05:48:49.493Z,62.34
2022-12-01T05:51:17.605Z,62.57
2022-12-01T05:53:45.209Z,62.48
2022-12-01T05:56:12.107Z,62.33
2022-12-01T05:58:38.853Z,62.71
2022-12-01T06:01:05.730Z,62.51
2022-12-01T06:03:33.319Z,62.80
2022-12-01T06:05:59.999Z,62.96
2022-12-01T06:08:28.174Z,63.15
2022-12-01T06:10:54.797Z,63.20
2022-12-01T06:13:21.772Z,62.93
2022-12-01T06:16:03.129Z,63.22
2022-12-01T06:18:35.914Z,63.48
2022-12-01T06:21:04.751Z,63.66
2022-12-01T06:23:32.570Z,63.33
2022-12-01T06:25:59.215Z,63.12
2022-12-01T06:28:26.689Z,63.71
2022-12-01T06:31:00.985Z,63.58
2022-12-01T06:33:29.371Z,63.50
2022-12-01T06:36:05.019Z,63.22
2022-12-01T06:38:35.382Z,63.35
2022-12-01T06:41:03.775Z,63.62
2022-12-01T06:43:30.764Z,63.71
2022-12-01T06:46:01.682Z,63.88
2022-12-01T06:48:28.512Z,64.15
2022-12-01T06:51:01.083Z,63.68
2022-12-01T06:53:28.732Z,63.78
2022-12-01T06:56:01.403Z,63.69
2022-12-01T06:58:28.531Z,63.50
2022-12-01T07:00:57.716Z,63.98
2022-12-01T07:03:25.892Z,63.79
2022-12-01T07:06:00.005Z,63.54
2022-12-01T07:08:28.491Z,64.07
2022-12-01T07:11:03.676Z,63.66
2022-12-01T07:13:33.668Z,63.75
2022-12-01T07:16:03.057Z,63.75
2022-12-01T07:18:30.145Z,62.52
2022-12-01T07:21:01.484Z,62.77
2022-12-01T07:23:28.390Z,62.95
2022-12-01T07:26:02.529Z,62.63
2022-12-01T07:28:32.976Z,62.80
2022-12-01T07:31:11.383Z,62.70
2022-12-01T07:33:39.220Z,62.85
2022-12-01T07:36:06.532Z,63.30
2022-12-01T07:38:34.263Z,63.33
2022-12-01T07:41:07.253Z,63.26
2022-12-01T07:43:35.168Z,63.06
2022-12-01T07:46:20.298Z,63.09
2022-12-01T07:48:49.168Z,62.72
2022-12-01T07:51:19.629Z,62.30
2022-12-01T07:53:48.528Z,62.27
2022-12-01T07:56:16.004Z,61.82
2022-12-01T07:58:44.206Z,61.46
2022-12-01T08:01:14.652Z,61.99
2022-12-01T08:03:42.499Z,61.07
2022-12-01T08:06:10.489Z,60.43
2022-12-01T08:08:40.196Z,60.40
2022-12-01T08:11:29.475Z,59.85
2022-12-01T08:13:56.622Z,59.26
2022-12-01T08:16:24.883Z,59.88
2022-12-01T08:18:51.876Z,59.01
2022-12-01T08:21:20.803Z,59.68
2022-12-01T08:23:48.229Z,58.96
2022-12-01T08:26:17.753Z,59.66
2022-12-01T08:28:45.283Z,58.62
2022-12-01T08:31:15.559Z,59.27
2022-12-01T08:33:42.833Z,58.66
2022-12-01T08:36:09.827Z,58.91
2022-12-01T08:38:36.463Z,58.84
2022-12-01T08:41:05.356Z,58.27
2022-12-01T08:43:56.597Z,57.92
2022-12-01T08:46:18.842Z,58.02
2022-12-01T08:48:45.832Z,58.57
2022-12-01T08:51:15.530Z,59.32
2022-12-01T08:53:45.866Z,58.62
2022-12-01T08:56:22.015Z,57.54
2022-12-01T08:58:49.057Z,58.00
2022-12-01T09:01:17.056Z,58.24
2022-12-01T09:03:44.788Z,58.33
2022-12-01T09:06:17.483Z,58.07
2022-12-01T09:08:44.402Z,57.72
2022-12-01T09:11:14.699Z,58.09
2022-12-01T09:13:42.454Z,58.14
2022-12-01T09:16:13.043Z,58.08
2022-12-01T09:18:41.540Z,58.14
2022-12-01T09:21:22.381Z,57.30
2022-12-01T09:23:49.610Z,58.39
2022-12-01T09:26:19.344Z,58.61
2022-12-01T09:28:47.897Z,57.98
2022-12-01T09:31:16.073Z,57.49
2022-12-01T09:33:42.789Z,57.69
2022-12-01T09:36:10.730Z,57.89
2022-12-01T09:38:38.878Z,57.19
2022-12-01T09:41:15.365Z,57.32
2022-12-01T09:43:47.422Z,57.42
2022-12-01T09:46:20.905Z,58.18
2022-12-01T09:48:51.473Z,57.01
2022-12-01T09:51:24.023Z,57.48
2022-12-01T09:53:53.287Z,56.96
2022-12-01T09:56:24.990Z,57.03
2022-12-01T09:59:08.269Z,56.98
2022-12-01T10:01:38.608Z,57.14
2022-12-01T10:04:17.574Z,57.38
2022-12-01T10:06:57.984Z,56.48
2022-12-01T10:09:52.272Z,55.88
2022-12-01T10:12:22.950Z,56.50
2022-12-01T10:14:50.969Z,56.34
2022-12-01T10:17:34.455Z,55.29
2022-12-01T10:20:14.228Z,55.76
2022-12-01T10:23:22.431Z,55.65
2022-12-01T10:26:10.215Z,56.71
2022-12-01T10:28:56.311Z,55.79
2022-12-01T10:31:39.941Z,55.93
2022-12-01T10:34:13.419Z,56.65
2022-12-01T10:36:40.437Z,56.36
2022-12-01T10:39:15.708Z,55.95
2022-12-01T10:41:42.538Z,55.78
2022-12-01T10:44:10.300Z,55.48
2022-12-01T10:46:52.554Z,54.35
2022-12-01T10:49:19.922Z,55.23
2022-12-01T10:51:58.268Z,55.06
2022-12-01T10:54:39.039Z,55.51
2022-12-01T10:57:17.506Z,55.44
2022-12-01T10:59:59.704Z,55.09
2022-12-01T11:02:29.991Z,55.69
2022-12-01T11:05:06.578Z,55.35
2022-12-01T11:07:35.491Z,55.52
2022-12-01T11:10:02.934Z,54.89
2022-12-01T11:12:30.346Z,55.17
2022-12-01T11:14:58.279Z,55.34
2022-12-01T11:18:00.922Z,54.42
2022-12-01T11:20:32.349Z,55.26
2022-12-01T11:23:17.798Z,56.32
2022-12-01T11:25:57.285Z,55.62
2022-12-01T11:28:24.529Z,56.98
2022-12-01T11:31:09.694Z,56.19
2022-12-01T11:33:50.393Z,55.62
2022-12-01T11:36:28.317Z,55.44
2022-12-01T11:38:58.223Z,56.75
2022-12-01T11:41:29.685Z,55.69
2022-12-01T11:44:01.827Z,54.10
2022-12-01T11:46:35.758Z,53.07
2022-12-01T11:49:03.354Z,52.89
2022-12-01T11:51:37.264Z,53.72
2022-12-01T11:54:15.115Z,54.26
2022-12-01T11:56:44.364Z,53.53
2022-12-01T11:59:13.037Z,52.27
2022-12-01T12:02:04.924Z,53.00
2022-12-01T12:04:43.868Z,53.28
2022-12-01T12:07:26.691Z,52.49
2022-12-01T12:10:15.960Z,51.72
2022-12-01T12:13:01.889Z,52.22
2022-12-01T12:16:06.973Z,51.69
2022-12-01T12:18:50.789Z,51.92
2022-12-01T12:21:34.704Z,52.50
2022-12-01T12:24:23.852Z,51.92
2022-12-01T12:27:08.789Z,51.74
2022-12-01T12:30:20.783Z,51.14
2022-12-01T12:33:38.979Z,51.44
2022-12-01T12:36:35.098Z,51.75
2022-12-01T12:39:50.513Z,52.22
2022-12-01T12:42:52.435Z,52.22
2022-12-01T12:45:34.294Z,52.13
2022-12-01T12:48:19.220Z,52.02
2022-12-01T12:50:58.049Z,52.73
2022-12-01T12:53:34.665Z,52.02
2022-12-01T12:56:06.500Z,52.37
2022-12-01T12:58:39.815Z,52.16
2022-12-01T13:01:18.211Z,52.67
2022-12-01T13:04:06.758Z,52.34
2022-12-01T13:06:46.689Z,51.70
2022-12-01T13:09:27.244Z,51.77
2022-12-01T13:12:01.903Z,51.83
2022-12-01T13:14:36.963Z,51.73
2022-12-01T13:17:11.996Z,51.92
2022-12-01T13:19:41.807Z,52.26
2022-12-01T13:22:18.520Z,52.84
2022-12-01T13:24:45.841Z,51.93
2022-12-01T13:27:23.090Z,52.34
2022-12-01T13:29:54.738Z,52.16
2022-12-01T13:32:29.159Z,52.36
2022-12-01T13:34:56.538Z,52.09
2022-12-01T13:37:29.334Z,52.92
2022-12-01T13:40:06.154Z,52.29
2022-12-01T13:42:34.571Z,52.62
2022-12-01T13:45:10.875Z,53.19
2022-12-01T13:47:39.688Z,53.20
2022-12-01T13:50:42.611Z,52.95
2022-12-01T13:53:27.830Z,53.21
2022-12-01T13:55:57.581Z,53.01
2022-12-01T13:58:33.253Z,52.75
2022-12-01T14:01:25.334Z,53.07
2022-12-01T14:03:52.224Z,53.04
2022-12-01T14:06:34.132Z,52.81
2022-12-01T14:09:05.146Z,53.74
2022-12-01T14:11:35.914Z,53.74
2022-12-01T14:14:26.385Z,53.62
2022-12-01T14:16:57.923Z,54.07
2022-12-01T14:19:58.105Z,53.73
2022-12-01T14:22:37.133Z,54.65
2022-12-01T14:25:39.641Z,54.66
2022-12-01T14:28:15.950Z,54.91
2022-12-01T14:30:44.365Z,55.31
2022-12-01T14:33:48.528Z,55.26
2022-12-01T14:36:24.362Z,55.47
2022-12-01T14:39:33.419Z,55.91
2022-12-01T14:42:55.734Z,56.08
2022-12-01T14:45:48.627Z,56.18
2022-12-01T14:48:43.655Z,56.27
2022-12-01T14:51:29.009Z,56.68
2022-12-01T14:53:59.591Z,57.03
2022-12-01T14:56:31.697Z,57.09
2022-12-01T14:59:00.976Z,56.97
2022-12-01T15:01:43.540Z,57.13
2022-12-01T15:04:12.866Z,57.23
2022-12-01T15:06:39.991Z,57.48
2022-12-01T15:12:08.648Z,57.92
2022-12-01T15:14:48.121Z,57.90
2022-12-01T15:17:34.614Z,57.94
2022-12-01T15:20:05.834Z,58.36
2022-12-01T15:22:34.069Z,58.04
2022-12-01T15:25:15.748Z,58.62
2022-12-01T15:28:12.632Z,58.74
2022-12-01T15:30:45.831Z,58.72
2022-12-01T15:33:36.976Z,59.09
2022-12-01T15:36:04.602Z,59.01
2022-12-01T15:38:35.894Z,59.30
2022-12-01T15:41:28.357Z,59.50
2022-12-01T15:44:06.643Z,59.83
2022-12-01T15:46:34.815Z,59.82
2022-12-01T15:49:30.095Z,59.96
2022-12-01T15:52:12.770Z,60.02
2022-12-01T15:54:43.218Z,59.37
2022-12-01T15:57:18.291Z,59.81
2022-12-01T15:59:47.228Z,60.33
2022-12-01T16:02:26.967Z,60.39
2022-12-01T16:05:09.046Z,60.44
2022-12-01T16:08:12.037Z,60.69
2022-12-01T16:10:35.770Z,60.82
2022-12-01T16:13:42.113Z,60.98
2022-12-01T16:16:42.447Z,61.12
2022-12-01T16:19:09.072Z,60.73
2022-12-01T16:22:06.100Z,60.76
2022-12-01T16:24:39.901Z,60.37
2022-12-01T16:27:17.989Z,60.24
2022-12-01T16:30:09.502Z,60.83
2022-12-01T16:32:44.734Z,60.99
2022-12-01T16:35:26.849Z,61.05
2022-12-01T16:37:58.430Z,61.29
2022-12-01T16:40:26.400Z,60.67
2022-12-01T16:42:57.201Z,60.76
2022-12-01T16:45:28.467Z,61.04
2022-12-01T16:48:04.777Z,60.68
2022-12-01T16:50:37.272Z,60.94
2022-12-01T16:53:05.280Z,60.59
2022-12-01T16:55:53.239Z,60.53
2022-12-01T16:58:20.618Z,60.61
2022-12-01T17:00:56.128Z,61.00
2022-12-01T17:03:26.545Z,60.82
2022-12-01T17:05:54.304Z,61.17
2022-12-01T17:08:22.102Z,60.93
2022-12-01T17:10:51.267Z,61.21
2022-12-01T17:13:20.035Z,61.21
2022-12-01T17:15:49.412Z,61.46
2022-12-01T17:18:19.169Z,61.13
2022-12-01T17:20:48.837Z,61.37
2022-12-01T17:23:15.920Z,60.88
2022-12-01T17:25:42.916Z,61.42
2022-12-01T17:28:22.209Z,61.37
2022-12-01T17:30:51.799Z,61.24
2022-12-01T17:33:20.888Z,61.79
2022-12-01T17:35:50.855Z,61.72
2022-12-01T17:38:17.580Z,61.85
2022-12-01T17:40:58.705Z,62.32
2022-12-01T17:43:25.519Z,62.02
2022-12-01T17:45:54.982Z,61.79
2022-12-01T17:48:21.577Z,62.47
2022-12-01T17:50:48.161Z,62.40
2022-12-01T17:53:14.805Z,63.48
2022-12-01T17:55:41.589Z,63.12
2022-12-01T17:58:09.758Z,63.15
2022-12-01T18:00:36.403Z,63.71
2022-12-01T18:03:03.786Z,63.38
2022-12-01T18:05:30.607Z,63.50
2022-12-01T18:07:57.522Z,63.92
2022-12-01T18:10:24.431Z,64.17
2022-12-01T18:12:51.080Z,64.31
2022-12-01T18:15:18.400Z,64.30
2022-12-01T18:17:45.045Z,64.13
2022-12-01T18:20:11.939Z,64.38
2022-12-01T18:22:38.666Z,64.60
2022-12-01T18:25:05.903Z,64.17
2022-12-01T18:27:32.564Z,64.41
2022-12-01T18:29:59.438Z,64.31
2022-12-01T18:32:26.026Z,64.74
2022-12-01T18:34:53.077Z,64.90
2022-12-01T18:37:19.965Z,65.36
2022-12-01T18:39:46.892Z,64.83
2022-12-01T18:42:17.765Z,64.51
2022-12-01T18:44:44.441Z,65.03
2022-12-01T18:47:15.218Z,64.77
2022-12-01T18:49:42.290Z,65.13
2022-12-01T18:52:08.984Z,65.63
2022-12-01T18:54:36.269Z,65.48
2022-12-01T18:57:03.192Z,65.65
2022-12-01T18:59:31.153Z,65.46
2022-12-01T19:01:57.935Z,65.66
2022-12-01T19:04:24.626Z,65.64
2022-12-01T19:06:51.365Z,65.87
2022-12-01T19:09:18.972Z,65.53
2022-12-01T19:11:46.504Z,65.61
2022-12-01T19:14:18.681Z,65.92
2022-12-01T19:16:46.228Z,66.02
2022-12-01T19:19:13.412Z,65.76
2022-12-01T19:21:41.798Z,65.69
2022-12-01T19:24:08.512Z,65.87
2022-12-01T19:26:35.346Z,65.81
2022-12-01T19:29:05.363Z,66.21
2022-12-01T19:31:32.145Z,65.87
2022-12-01T19:33:58.995Z,66.27
2022-12-01T19:36:27.928Z,65.89
2022-12-01T19:38:58.302Z,65.90
2022-12-01T19:41:26.143Z,65.89
2022-12-01T19:43:53.962Z,66.15
2022-12-01T19:46:27.584Z,66.11
2022-12-01T19:49:05.838Z,66.74
2022-12-01T19:51:37.451Z,66.90
2022-12-01T19:54:13.201Z,66.35
2022-12-01T19:56:39.915Z,66.69
2022-12-01T19:59:07.989Z,67.24
2022-12-01T20:01:34.795Z,67.58
2022-12-01T20:04:01.728Z,67.44
2022-12-01T20:06:30.988Z,66.88
2022-12-01T20:08:59.918Z,67.11
2022-12-01T20:11:29.892Z,67.61
2022-12-01T20:13:56.756Z,67.45
2022-12-01T20:16:25.641Z,67.40
2022-12-01T20:18:54.140Z,68.10
2022-12-01T20:21:27.419Z,67.43
2022-12-01T20:24:02.649Z,67.37
2022-12-01T20:26:32.837Z,67.70
2022-12-01T20:29:04.082Z,67.49
2022-12-01T20:31:32.597Z,67.67
2022-12-01T20:34:02.038Z,67.32
2022-12-01T20:36:32.048Z,67.69
2022-12-01T20:39:01.177Z,68.02
2022-12-01T20:41:27.885Z,67.23
2022-12-01T20:43:54.623Z,67.21
2022-12-01T20:46:21.280Z,67.20
2022-12-01T20:48:49.605Z,67.22
2022-12-01T20:51:16.724Z,67.68
2022-12-01T20:54:05.481Z,67.62
2022-12-01T20:56:32.279Z,68.05
2022-12-01T20:58:59.987Z,68.33
2022-12-01T21:01:26.856Z,67.68
2022-12-01T21:03:54.658Z,68.44
2022-12-01T21:06:21.816Z,68.50
2022-12-01T21:08:50.051Z,68.10
2022-12-01T21:11:52.316Z,67.82
2022-12-01T21:14:31.703Z,68.76
2022-12-01T21:17:04.234Z,68.02
2022-12-01T21:19:47.145Z,68.45
2022-12-01T21:22:14.287Z,68.87
2022-12-01T21:24:48.411Z,68.60
2022-12-01T21:27:17.142Z,68.43
2022-12-01T21:29:50.019Z,68.17
2022-12-01T21:32:29.823Z,68.15
2022-12-01T21:35:02.952Z,68.63
2022-12-01T21:37:29.574Z,68.39
2022-12-01T21:39:57.051Z,68.37
2022-12-01T21:42:27.639Z,68.08
2022-12-01T21:44:56.133Z,68.65
2022-12-01T21:47:25.878Z,68.23
2022-12-01T21:49:55.834Z,68.90
2022-12-01T21:52:30.442Z,68.24
2022-12-01T21:55:23.512Z,69.11
2022-12-01T21:57:54.545Z,68.95
2022-12-01T22:00:30.802Z,68.10
2022-12-01T22:03:00.444Z,68.23
2022-12-01T22:05:33.872Z,68.44
2022-12-01T22:08:25.941Z,68.82
2022-12-01T22:11:12.768Z,68.69
2022-12-01T22:13:43.722Z,68.18
2022-12-01T22:16:22.860Z,68.89
2022-12-01T22:18:52.686Z,68.41
2022-12-01T22:22:09.072Z,68.76
2022-12-01T22:24:52.251Z,68.35
2022-12-01T22:27:34.369Z,68.24
2022-12-01T22:30:07.491Z,68.22
2022-12-01T22:32:51.243Z,68.46
2022-12-01T22:35:22.855Z,68.75
2022-12-01T22:38:12.886Z,68.72
2022-12-01T22:40:51.885Z,68.09
2022-12-01T22:43:18.559Z,68.33
2022-12-01T22:46:00.532Z,68.35
2022-12-01T22:48:43.668Z,68.41
2022-12-01T22:51:13.126Z,68.39
2022-12-01T22:53:41.259Z,67.93
2022-12-01T22:56:26.637Z,68.67
2022-12-01T22:58:53.350Z,68.85
2022-12-01T23:01:33.789Z,68.85
2022-12-01T23:04:35.795Z,69.12
2022-12-01T23:07:35.015Z,68.81
2022-12-01T23:10:24.968Z,68.58
2022-12-01T23:12:54.821Z,69.44
2022-12-01T23:15:35.481Z,69.10
2022-12-01T23:18:15.392Z,69.67
2022-12-01T23:20:44.428Z,69.36
2022-12-01T23:23:17.124Z,69.53
2022-12-01T23:25:44.512Z,68.87
2022-12-01T23:28:12.550Z,68.87
2022-12-01T23:30:41.308Z,69.66
2022-12-01T23:33:36.997Z,69.41
2022-12-01T23:36:11.904Z,69.35
2022-12-01T23:38:45.097Z,69.39
2022-12-01T23:41:37.233Z,69.55
2022-12-01T23:44:20.283Z,68.91
2022-12-01T23:46:50.451Z,69.67
2022-12-01T23:49:20.911Z,70.07
2022-12-01T23:51:55.104Z,69.75
2022-12-01T23:54:29.280Z,69.87
2022-12-01T23:57:00.715Z,69.55
2022-12-01T23:59:29.071Z,70.28
